sensor_id;sensor_type;location;lat;lon;timestamp;P1;durP1;ratioP1;P2;durP2;ratioP2
21260;SDS011;10788;47.930;9.766;2023-08-21T00:00:21;0.20;;;0.20;;
21260;SDS011;10788;47.930;9.766;2023-08-21T00:02:47;0.10;;;0.10;;
21260;SDS011;10788;47.930;9.766;2023-08-21T00:05:12;0.10;;;0.10;;
21260;SDS011;10788;47.930;9.766;2023-08-21T00:07:38;0.20;;;0.20;;
21260;SDS011;10788;47.930;9.766;2023-08-21T00:10:04;0.20;;;0.20;;
21260;SDS011;10788;47.930;9.766;2023-08-21T00:12:30;0.20;;;0.20;;
21260;SDS011;10788;47.930;9.766;2023-08-21T00:14:55;0.20;;;0.20;;
21260;SDS011;10788;47.930;9.766;2023-08-21T00:17:22;0.10;;;0.10;;
21260;SDS011;10788;47.930;9.766;2023-08-21T00:19:47;0.20;;;0.20;;
21260;SDS011;10788;47.930;9.766;2023-08-21T00:22:13;0.10;;;0.10;;
21260;SDS011;10788;47.930;9.766;2023-08-21T00:24:39;0.10;;;0.10;;
21260;SDS011;10788;47.930;9.766;2023-08-21T00:27:04;0.20;;;0.20;;
21260;SDS011;10788;47.930;9.766;2023-08-21T00:29:30;0.10;;;0.10;;
21260;SDS011;10788;47.930;9.766;2023-08-21T00:31:55;0.20;;;0.20;;
21260;SDS011;10788;47.930;9.766;2023-08-21T00:34:21;0.10;;;0.10;;
21260;SDS011;10788;47.930;9.766;2023-08-21T00:36:47;0.20;;;0.20;;
21260;SDS011;10788;47.930;9.766;2023-08-21T00:39:12;0.17;;;0.17;;
21260;SDS011;10788;47.930;9.766;2023-08-21T00:41:38;0.20;;;0.20;;
21260;SDS011;10788;47.930;9.766;2023-08-21T00:44:03;0.20;;;0.20;;
21260;SDS011;10788;47.930;9.766;2023-08-21T00:46:29;0.10;;;0.10;;
21260;SDS011;10788;47.930;9.766;2023-08-21T00:48:56;0.10;;;0.10;;
21260;SDS011;10788;47.930;9.766;2023-08-21T00:51:22;0.20;;;0.20;;
21260;SDS011;10788;47.930;9.766;2023-08-21T00:53:48;0.20;;;0.20;;
21260;SDS011;10788;47.930;9.766;2023-08-21T00:56:14;0.20;;;0.20;;
21260;SDS011;10788;47.930;9.766;2023-08-21T00:58:40;0.20;;;0.20;;
21260;SDS011;10788;47.930;9.766;2023-08-21T01:01:07;0.10;;;0.10;;
21260;SDS011;10788;47.930;9.766;2023-08-21T01:03:33;0.10;;;0.10;;
21260;SDS011;10788;47.930;9.766;2023-08-21T01:05:59;0.10;;;0.10;;
21260;SDS011;10788;47.930;9.766;2023-08-21T01:08:47;0.10;;;0.10;;
21260;SDS011;10788;47.930;9.766;2023-08-21T01:11:32;0.13;;;0.13;;
21260;SDS011;10788;47.930;9.766;2023-08-21T01:16:58;0.20;;;0.20;;
21260;SDS011;10788;47.930;9.766;2023-08-21T01:19:37;0.10;;;0.10;;
21260;SDS011;10788;47.930;9.766;2023-08-21T01:22:08;0.10;;;0.10;;
21260;SDS011;10788;47.930;9.766;2023-08-21T01:24:34;0.10;;;0.10;;
21260;SDS011;10788;47.930;9.766;2023-08-21T01:27:00;0.20;;;0.20;;
21260;SDS011;10788;47.930;9.766;2023-08-21T01:29:26;0.10;;;0.10;;
21260;SDS011;10788;47.930;9.766;2023-08-21T01:31:54;0.20;;;0.20;;
21260;SDS011;10788;47.930;9.766;2023-08-21T01:34:42;0.20;;;0.20;;
21260;SDS011;10788;47.930;9.766;2023-08-21T01:37:08;0.10;;;0.10;;
21260;SDS011;10788;47.930;9.766;2023-08-21T01:39:35;0.20;;;0.20;;
21260;SDS011;10788;47.930;9.766;2023-08-21T01:42:01;0.10;;;0.10;;
21260;SDS011;10788;47.930;9.766;2023-08-21T01:44:26;0.10;;;0.10;;
21260;SDS011;10788;47.930;9.766;2023-08-21T01:46:52;0.10;;;0.10;;
21260;SDS011;10788;47.930;9.766;2023-08-21T01:49:18;0.10;;;0.10;;
21260;SDS011;10788;47.930;9.766;2023-08-21T01:51:44;0.10;;;0.10;;
21260;SDS011;10788;47.930;9.766;2023-08-21T01:54:10;0.10;;;0.10;;
21260;SDS011;10788;47.930;9.766;2023-08-21T01:56:36;0.10;;;0.10;;
21260;SDS011;10788;47.930;9.766;2023-08-21T01:59:02;0.10;;;0.10;;
21260;SDS011;10788;47.930;9.766;2023-08-21T02:01:29;0.10;;;0.10;;
21260;SDS011;10788;47.930;9.766;2023-08-21T02:03:54;0.10;;;0.10;;
21260;SDS011;10788;47.930;9.766;2023-08-21T02:06:20;0.10;;;0.10;;
21260;SDS011;10788;47.930;9.766;2023-08-21T02:08:45;0.10;;;0.10;;
21260;SDS011;10788;47.930;9.766;2023-08-21T02:11:11;0.20;;;0.20;;
21260;SDS011;10788;47.930;9.766;2023-08-21T02:13:37;0.20;;;0.20;;
21260;SDS011;10788;47.930;9.766;2023-08-21T02:16:02;0.10;;;0.10;;
21260;SDS011;10788;47.930;9.766;2023-08-21T02:18:28;0.10;;;0.10;;
21260;SDS011;10788;47.930;9.766;2023-08-21T02:20:54;0.20;;;0.20;;
21260;SDS011;10788;47.930;9.766;2023-08-21T02:23:19;0.10;;;0.10;;
21260;SDS011;10788;47.930;9.766;2023-08-21T02:25:45;0.20;;;0.20;;
21260;SDS011;10788;47.930;9.766;2023-08-21T02:28:11;0.10;;;0.10;;
21260;SDS011;10788;47.930;9.766;2023-08-21T02:30:46;0.10;;;0.10;;
21260;SDS011;10788;47.930;9.766;2023-08-21T02:33:11;0.17;;;0.17;;
21260;SDS011;10788;47.930;9.766;2023-08-21T02:35:38;0.10;;;0.10;;
21260;SDS011;10788;47.930;9.766;2023-08-21T02:38:03;0.10;;;0.10;;
21260;SDS011;10788;47.930;9.766;2023-08-21T02:40:29;0.10;;;0.10;;
21260;SDS011;10788;47.930;9.766;2023-08-21T02:42:55;0.00;;;0.00;;
21260;SDS011;10788;47.930;9.766;2023-08-21T02:45:20;0.10;;;0.10;;
21260;SDS011;10788;47.930;9.766;2023-08-21T02:47:46;0.10;;;0.10;;
21260;SDS011;10788;47.930;9.766;2023-08-21T02:50:11;0.10;;;0.10;;
21260;SDS011;10788;47.930;9.766;2023-08-21T02:52:37;0.10;;;0.10;;
21260;SDS011;10788;47.930;9.766;2023-08-21T02:55:03;0.10;;;0.10;;
21260;SDS011;10788;47.930;9.766;2023-08-21T02:57:30;0.10;;;0.10;;
21260;SDS011;10788;47.930;9.766;2023-08-21T02:59:56;0.10;;;0.10;;
21260;SDS011;10788;47.930;9.766;2023-08-21T03:02:22;0.20;;;0.20;;
21260;SDS011;10788;47.930;9.766;2023-08-21T03:04:48;0.10;;;0.10;;
21260;SDS011;10788;47.930;9.766;2023-08-21T03:07:14;0.20;;;0.20;;
21260;SDS011;10788;47.930;9.766;2023-08-21T03:09:40;0.10;;;0.10;;
21260;SDS011;10788;47.930;9.766;2023-08-21T03:12:06;0.10;;;0.10;;
21260;SDS011;10788;47.930;9.766;2023-08-21T03:14:33;0.10;;;0.10;;
21260;SDS011;10788;47.930;9.766;2023-08-21T03:16:58;0.13;;;0.13;;
21260;SDS011;10788;47.930;9.766;2023-08-21T03:19:24;0.10;;;0.10;;
21260;SDS011;10788;47.930;9.766;2023-08-21T03:21:50;0.10;;;0.10;;
21260;SDS011;10788;47.930;9.766;2023-08-21T03:24:16;0.20;;;0.20;;
21260;SDS011;10788;47.930;9.766;2023-08-21T03:26:42;0.10;;;0.10;;
21260;SDS011;10788;47.930;9.766;2023-08-21T03:29:08;0.10;;;0.10;;
21260;SDS011;10788;47.930;9.766;2023-08-21T03:31:34;0.10;;;0.10;;
21260;SDS011;10788;47.930;9.766;2023-08-21T03:33:59;0.10;;;0.10;;
21260;SDS011;10788;47.930;9.766;2023-08-21T03:36:26;0.10;;;0.10;;
21260;SDS011;10788;47.930;9.766;2023-08-21T03:39:01;0.20;;;0.20;;
21260;SDS011;10788;47.930;9.766;2023-08-21T03:41:27;0.10;;;0.10;;
21260;SDS011;10788;47.930;9.766;2023-08-21T03:43:53;0.10;;;0.10;;
21260;SDS011;10788;47.930;9.766;2023-08-21T03:46:19;0.10;;;0.10;;
21260;SDS011;10788;47.930;9.766;2023-08-21T03:48:44;0.13;;;0.13;;
21260;SDS011;10788;47.930;9.766;2023-08-21T03:51:10;0.10;;;0.10;;
21260;SDS011;10788;47.930;9.766;2023-08-21T03:53:36;0.10;;;0.10;;
21260;SDS011;10788;47.930;9.766;2023-08-21T03:56:02;0.10;;;0.10;;
21260;SDS011;10788;47.930;9.766;2023-08-21T03:58:27;0.10;;;0.10;;
21260;SDS011;10788;47.930;9.766;2023-08-21T04:00:53;0.10;;;0.10;;
21260;SDS011;10788;47.930;9.766;2023-08-21T04:03:19;0.10;;;0.10;;
21260;SDS011;10788;47.930;9.766;2023-08-21T04:05:45;0.10;;;0.10;;
21260;SDS011;10788;47.930;9.766;2023-08-21T04:08:10;0.10;;;0.10;;
21260;SDS011;10788;47.930;9.766;2023-08-21T04:10:36;0.10;;;0.10;;
21260;SDS011;10788;47.930;9.766;2023-08-21T04:13:03;0.10;;;0.10;;
21260;SDS011;10788;47.930;9.766;2023-08-21T04:15:29;0.10;;;0.10;;
21260;SDS011;10788;47.930;9.766;2023-08-21T04:17:55;0.10;;;0.10;;
21260;SDS011;10788;47.930;9.766;2023-08-21T04:20:21;0.10;;;0.10;;
21260;SDS011;10788;47.930;9.766;2023-08-21T04:22:47;0.10;;;0.10;;
21260;SDS011;10788;47.930;9.766;2023-08-21T04:25:13;0.10;;;0.10;;
21260;SDS011;10788;47.930;9.766;2023-08-21T04:27:39;0.10;;;0.10;;
21260;SDS011;10788;47.930;9.766;2023-08-21T04:30:05;0.10;;;0.10;;
21260;SDS011;10788;47.930;9.766;2023-08-21T04:32:31;0.17;;;0.17;;
21260;SDS011;10788;47.930;9.766;2023-08-21T04:34:56;0.10;;;0.10;;
21260;SDS011;10788;47.930;9.766;2023-08-21T04:37:23;0.10;;;0.10;;
21260;SDS011;10788;47.930;9.766;2023-08-21T04:39:54;0.10;;;0.10;;
21260;SDS011;10788;47.930;9.766;2023-08-21T04:42:20;0.10;;;0.10;;
21260;SDS011;10788;47.930;9.766;2023-08-21T04:44:46;0.10;;;0.10;;
21260;SDS011;10788;47.930;9.766;2023-08-21T04:47:18;0.10;;;0.10;;
21260;SDS011;10788;47.930;9.766;2023-08-21T04:49:45;0.10;;;0.10;;
21260;SDS011;10788;47.930;9.766;2023-08-21T04:52:11;0.10;;;0.10;;
21260;SDS011;10788;47.930;9.766;2023-08-21T04:54:36;0.10;;;0.10;;
21260;SDS011;10788;47.930;9.766;2023-08-21T04:57:02;0.10;;;0.10;;
21260;SDS011;10788;47.930;9.766;2023-08-21T04:59:28;0.10;;;0.10;;
21260;SDS011;10788;47.930;9.766;2023-08-21T05:01:53;0.20;;;0.20;;
21260;SDS011;10788;47.930;9.766;2023-08-21T05:04:19;0.10;;;0.10;;
21260;SDS011;10788;47.930;9.766;2023-08-21T05:06:45;0.10;;;0.10;;
21260;SDS011;10788;47.930;9.766;2023-08-21T05:09:10;0.10;;;0.10;;
21260;SDS011;10788;47.930;9.766;2023-08-21T05:11:36;0.10;;;0.10;;
21260;SDS011;10788;47.930;9.766;2023-08-21T05:14:01;0.17;;;0.17;;
21260;SDS011;10788;47.930;9.766;2023-08-21T05:16:27;0.10;;;0.10;;
21260;SDS011;10788;47.930;9.766;2023-08-21T05:18:52;0.10;;;0.10;;
21260;SDS011;10788;47.930;9.766;2023-08-21T05:21:18;0.10;;;0.10;;
21260;SDS011;10788;47.930;9.766;2023-08-21T05:23:44;0.10;;;0.10;;
21260;SDS011;10788;47.930;9.766;2023-08-21T05:26:09;0.10;;;0.10;;
21260;SDS011;10788;47.930;9.766;2023-08-21T05:28:35;0.10;;;0.10;;
21260;SDS011;10788;47.930;9.766;2023-08-21T05:31:00;0.03;;;0.03;;
21260;SDS011;10788;47.930;9.766;2023-08-21T05:33:26;0.10;;;0.10;;
21260;SDS011;10788;47.930;9.766;2023-08-21T05:35:52;0.10;;;0.10;;
21260;SDS011;10788;47.930;9.766;2023-08-21T05:38:18;0.10;;;0.10;;
21260;SDS011;10788;47.930;9.766;2023-08-21T05:40:44;0.10;;;0.10;;
21260;SDS011;10788;47.930;9.766;2023-08-21T05:43:09;0.10;;;0.10;;
21260;SDS011;10788;47.930;9.766;2023-08-21T05:45:35;0.10;;;0.10;;
21260;SDS011;10788;47.930;9.766;2023-08-21T05:48:01;0.10;;;0.10;;
21260;SDS011;10788;47.930;9.766;2023-08-21T05:50:26;0.10;;;0.10;;
21260;SDS011;10788;47.930;9.766;2023-08-21T05:52:52;0.10;;;0.10;;
21260;SDS011;10788;47.930;9.766;2023-08-21T05:55:19;0.10;;;0.10;;
21260;SDS011;10788;47.930;9.766;2023-08-21T05:57:46;0.10;;;0.10;;
21260;SDS011;10788;47.930;9.766;2023-08-21T06:00:12;0.10;;;0.10;;
21260;SDS011;10788;47.930;9.766;2023-08-21T06:02:38;0.10;;;0.10;;
21260;SDS011;10788;47.930;9.766;2023-08-21T06:05:04;0.10;;;0.10;;
21260;SDS011;10788;47.930;9.766;2023-08-21T06:07:30;0.10;;;0.10;;
21260;SDS011;10788;47.930;9.766;2023-08-21T06:09:57;0.17;;;0.17;;
21260;SDS011;10788;47.930;9.766;2023-08-21T06:12:22;0.00;;;0.00;;
21260;SDS011;10788;47.930;9.766;2023-08-21T06:14:48;0.10;;;0.10;;
21260;SDS011;10788;47.930;9.766;2023-08-21T06:17:14;0.10;;;0.10;;
21260;SDS011;10788;47.930;9.766;2023-08-21T06:19:39;0.10;;;0.10;;
21260;SDS011;10788;47.930;9.766;2023-08-21T06:22:05;0.10;;;0.10;;
21260;SDS011;10788;47.930;9.766;2023-08-21T06:24:31;0.10;;;0.10;;
21260;SDS011;10788;47.930;9.766;2023-08-21T06:26:56;0.10;;;0.10;;
21260;SDS011;10788;47.930;9.766;2023-08-21T06:29:22;0.10;;;0.10;;
21260;SDS011;10788;47.930;9.766;2023-08-21T06:31:47;0.10;;;0.10;;
21260;SDS011;10788;47.930;9.766;2023-08-21T06:34:13;0.10;;;0.10;;
21260;SDS011;10788;47.930;9.766;2023-08-21T06:36:39;0.10;;;0.10;;
21260;SDS011;10788;47.930;9.766;2023-08-21T06:39:04;0.10;;;0.10;;
21260;SDS011;10788;47.930;9.766;2023-08-21T06:41:30;0.10;;;0.10;;
21260;SDS011;10788;47.930;9.766;2023-08-21T06:43:56;0.10;;;0.10;;
21260;SDS011;10788;47.930;9.766;2023-08-21T06:46:22;0.20;;;0.20;;
21260;SDS011;10788;47.930;9.766;2023-08-21T06:48:48;0.17;;;0.17;;
21260;SDS011;10788;47.930;9.766;2023-08-21T06:51:15;0.10;;;0.10;;
21260;SDS011;10788;47.930;9.766;2023-08-21T06:53:41;0.10;;;0.10;;
21260;SDS011;10788;47.930;9.766;2023-08-21T06:56:07;0.10;;;0.10;;
21260;SDS011;10788;47.930;9.766;2023-08-21T06:58:32;0.10;;;0.10;;
21260;SDS011;10788;47.930;9.766;2023-08-21T07:00:59;0.10;;;0.10;;
21260;SDS011;10788;47.930;9.766;2023-08-21T07:03:26;0.10;;;0.10;;
21260;SDS011;10788;47.930;9.766;2023-08-21T07:05:53;0.10;;;0.10;;
21260;SDS011;10788;47.930;9.766;2023-08-21T07:08:22;0.20;;;0.20;;
21260;SDS011;10788;47.930;9.766;2023-08-21T07:10:49;0.10;;;0.10;;
21260;SDS011;10788;47.930;9.766;2023-08-21T07:13:14;0.10;;;0.10;;
21260;SDS011;10788;47.930;9.766;2023-08-21T07:15:40;0.20;;;0.20;;
21260;SDS011;10788;47.930;9.766;2023-08-21T07:18:06;0.20;;;0.20;;
21260;SDS011;10788;47.930;9.766;2023-08-21T07:20:32;0.13;;;0.13;;
21260;SDS011;10788;47.930;9.766;2023-08-21T07:22:59;0.10;;;0.10;;
21260;SDS011;10788;47.930;9.766;2023-08-21T07:25:24;0.17;;;0.17;;
21260;SDS011;10788;47.930;9.766;2023-08-21T07:27:50;0.10;;;0.10;;
21260;SDS011;10788;47.930;9.766;2023-08-21T07:30:18;0.10;;;0.10;;
21260;SDS011;10788;47.930;9.766;2023-08-21T07:32:44;0.13;;;0.13;;
21260;SDS011;10788;47.930;9.766;2023-08-21T07:35:10;0.20;;;0.20;;
21260;SDS011;10788;47.930;9.766;2023-08-21T07:37:36;0.10;;;0.10;;
21260;SDS011;10788;47.930;9.766;2023-08-21T07:40:02;0.20;;;0.20;;
21260;SDS011;10788;47.930;9.766;2023-08-21T07:42:28;0.20;;;0.20;;
21260;SDS011;10788;47.930;9.766;2023-08-21T07:44:53;0.10;;;0.10;;
21260;SDS011;10788;47.930;9.766;2023-08-21T07:47:19;0.10;;;0.10;;
21260;SDS011;10788;47.930;9.766;2023-08-21T07:49:44;0.10;;;0.10;;
21260;SDS011;10788;47.930;9.766;2023-08-21T07:52:10;0.20;;;0.20;;
21260;SDS011;10788;47.930;9.766;2023-08-21T07:54:36;0.10;;;0.10;;
21260;SDS011;10788;47.930;9.766;2023-08-21T07:57:01;0.20;;;0.20;;
21260;SDS011;10788;47.930;9.766;2023-08-21T07:59:28;0.20;;;0.20;;
21260;SDS011;10788;47.930;9.766;2023-08-21T08:01:54;0.20;;;0.20;;
21260;SDS011;10788;47.930;9.766;2023-08-21T08:04:20;0.20;;;0.20;;
21260;SDS011;10788;47.930;9.766;2023-08-21T08:06:46;0.30;;;0.30;;
21260;SDS011;10788;47.930;9.766;2023-08-21T08:09:13;0.20;;;0.20;;
21260;SDS011;10788;47.930;9.766;2023-08-21T08:11:38;0.30;;;0.30;;
21260;SDS011;10788;47.930;9.766;2023-08-21T08:14:04;0.23;;;0.23;;
21260;SDS011;10788;47.930;9.766;2023-08-21T08:16:29;0.20;;;0.20;;
21260;SDS011;10788;47.930;9.766;2023-08-21T08:18:55;0.30;;;0.30;;
21260;SDS011;10788;47.930;9.766;2023-08-21T08:21:21;0.30;;;0.30;;
21260;SDS011;10788;47.930;9.766;2023-08-21T08:23:46;0.27;;;0.27;;
21260;SDS011;10788;47.930;9.766;2023-08-21T08:26:12;0.20;;;0.20;;
21260;SDS011;10788;47.930;9.766;2023-08-21T08:28:38;0.20;;;0.20;;
21260;SDS011;10788;47.930;9.766;2023-08-21T08:31:03;0.23;;;0.23;;
21260;SDS011;10788;47.930;9.766;2023-08-21T08:33:29;0.30;;;0.30;;
21260;SDS011;10788;47.930;9.766;2023-08-21T08:35:55;0.27;;;0.27;;
21260;SDS011;10788;47.930;9.766;2023-08-21T08:38:20;0.30;;;0.30;;
21260;SDS011;10788;47.930;9.766;2023-08-21T08:40:46;0.30;;;0.30;;
21260;SDS011;10788;47.930;9.766;2023-08-21T08:43:13;0.20;;;0.20;;
21260;SDS011;10788;47.930;9.766;2023-08-21T08:45:40;0.30;;;0.30;;
21260;SDS011;10788;47.930;9.766;2023-08-21T08:48:06;0.30;;;0.30;;
21260;SDS011;10788;47.930;9.766;2023-08-21T08:50:33;0.30;;;0.30;;
21260;SDS011;10788;47.930;9.766;2023-08-21T08:52:59;0.30;;;0.30;;
21260;SDS011;10788;47.930;9.766;2023-08-21T08:55:25;0.20;;;0.20;;
21260;SDS011;10788;47.930;9.766;2023-08-21T08:57:52;0.30;;;0.30;;
21260;SDS011;10788;47.930;9.766;2023-08-21T09:00:18;0.20;;;0.20;;
21260;SDS011;10788;47.930;9.766;2023-08-21T09:02:45;0.40;;;0.40;;
21260;SDS011;10788;47.930;9.766;2023-08-21T09:05:11;0.30;;;0.30;;
21260;SDS011;10788;47.930;9.766;2023-08-21T09:07:37;0.30;;;0.30;;
21260;SDS011;10788;47.930;9.766;2023-08-21T09:10:04;0.27;;;0.27;;
21260;SDS011;10788;47.930;9.766;2023-08-21T09:12:37;0.43;;;0.43;;
21260;SDS011;10788;47.930;9.766;2023-08-21T09:15:06;0.30;;;0.30;;
21260;SDS011;10788;47.930;9.766;2023-08-21T09:17:33;0.30;;;0.30;;
21260;SDS011;10788;47.930;9.766;2023-08-21T09:20:05;0.40;;;0.40;;
21260;SDS011;10788;47.930;9.766;2023-08-21T09:22:32;0.40;;;0.40;;
21260;SDS011;10788;47.930;9.766;2023-08-21T09:25:03;0.40;;;0.40;;
21260;SDS011;10788;47.930;9.766;2023-08-21T09:27:32;0.40;;;0.40;;
21260;SDS011;10788;47.930;9.766;2023-08-21T09:29:58;0.40;;;0.40;;
21260;SDS011;10788;47.930;9.766;2023-08-21T09:32:26;0.50;;;0.50;;
21260;SDS011;10788;47.930;9.766;2023-08-21T09:34:52;0.57;;;0.57;;
21260;SDS011;10788;47.930;9.766;2023-08-21T09:37:18;0.60;;;0.60;;
21260;SDS011;10788;47.930;9.766;2023-08-21T09:39:43;0.57;;;0.57;;
21260;SDS011;10788;47.930;9.766;2023-08-21T09:42:10;0.70;;;0.70;;
21260;SDS011;10788;47.930;9.766;2023-08-21T09:44:39;0.50;;;0.50;;
21260;SDS011;10788;47.930;9.766;2023-08-21T09:47:09;0.60;;;0.60;;
21260;SDS011;10788;47.930;9.766;2023-08-21T09:49:36;0.63;;;0.63;;
21260;SDS011;10788;47.930;9.766;2023-08-21T09:52:05;0.50;;;0.50;;
21260;SDS011;10788;47.930;9.766;2023-08-21T09:54:32;0.50;;;0.50;;
21260;SDS011;10788;47.930;9.766;2023-08-21T09:57:02;0.63;;;0.63;;
21260;SDS011;10788;47.930;9.766;2023-08-21T09:59:29;0.60;;;0.60;;
21260;SDS011;10788;47.930;9.766;2023-08-21T10:01:56;0.70;;;0.70;;
21260;SDS011;10788;47.930;9.766;2023-08-21T10:04:23;0.73;;;0.73;;
21260;SDS011;10788;47.930;9.766;2023-08-21T10:06:50;0.80;;;0.80;;
21260;SDS011;10788;47.930;9.766;2023-08-21T10:09:18;0.70;;;0.70;;
21260;SDS011;10788;47.930;9.766;2023-08-21T10:11:45;0.80;;;0.80;;
21260;SDS011;10788;47.930;9.766;2023-08-21T10:14:12;0.40;;;0.40;;
21260;SDS011;10788;47.930;9.766;2023-08-21T10:16:38;0.70;;;0.70;;
21260;SDS011;10788;47.930;9.766;2023-08-21T10:19:04;0.80;;;0.80;;
21260;SDS011;10788;47.930;9.766;2023-08-21T10:21:35;0.70;;;0.70;;
21260;SDS011;10788;47.930;9.766;2023-08-21T10:24:02;0.70;;;0.70;;
21260;SDS011;10788;47.930;9.766;2023-08-21T10:26:28;0.70;;;0.70;;
21260;SDS011;10788;47.930;9.766;2023-08-21T10:28:55;0.60;;;0.60;;
21260;SDS011;10788;47.930;9.766;2023-08-21T10:33:56;0.80;;;0.80;;
21260;SDS011;10788;47.930;9.766;2023-08-21T10:39:17;0.80;;;0.80;;
21260;SDS011;10788;47.930;9.766;2023-08-21T10:49:56;0.77;;;0.70;;
21260;SDS011;10788;47.930;9.766;2023-08-21T10:52:24;0.70;;;0.70;;
21260;SDS011;10788;47.930;9.766;2023-08-21T10:54:52;0.67;;;0.67;;
21260;SDS011;10788;47.930;9.766;2023-08-21T10:57:19;0.83;;;0.83;;
21260;SDS011;10788;47.930;9.766;2023-08-21T10:59:49;0.73;;;0.73;;
21260;SDS011;10788;47.930;9.766;2023-08-21T11:02:15;0.60;;;0.60;;
21260;SDS011;10788;47.930;9.766;2023-08-21T11:04:41;0.60;;;0.60;;
21260;SDS011;10788;47.930;9.766;2023-08-21T11:07:09;0.63;;;0.63;;
21260;SDS011;10788;47.930;9.766;2023-08-21T11:09:36;0.67;;;0.67;;
21260;SDS011;10788;47.930;9.766;2023-08-21T11:12:08;0.70;;;0.70;;
21260;SDS011;10788;47.930;9.766;2023-08-21T11:14:35;0.60;;;0.60;;
21260;SDS011;10788;47.930;9.766;2023-08-21T11:17:01;0.63;;;0.63;;
21260;SDS011;10788;47.930;9.766;2023-08-21T11:19:30;0.70;;;0.70;;
21260;SDS011;10788;47.930;9.766;2023-08-21T11:21:56;0.60;;;0.60;;
21260;SDS011;10788;47.930;9.766;2023-08-21T11:24:29;0.70;;;0.70;;
21260;SDS011;10788;47.930;9.766;2023-08-21T11:26:55;0.70;;;0.70;;
21260;SDS011;10788;47.930;9.766;2023-08-21T11:29:21;0.60;;;0.60;;
21260;SDS011;10788;47.930;9.766;2023-08-21T11:31:47;0.57;;;0.57;;
21260;SDS011;10788;47.930;9.766;2023-08-21T11:34:18;0.50;;;0.50;;
21260;SDS011;10788;47.930;9.766;2023-08-21T11:36:44;0.70;;;0.70;;
21260;SDS011;10788;47.930;9.766;2023-08-21T11:39:09;0.90;;;0.90;;
21260;SDS011;10788;47.930;9.766;2023-08-21T11:41:54;0.60;;;0.60;;
21260;SDS011;10788;47.930;9.766;2023-08-21T11:44:21;0.60;;;0.60;;
21260;SDS011;10788;47.930;9.766;2023-08-21T11:46:47;0.60;;;0.60;;
21260;SDS011;10788;47.930;9.766;2023-08-21T11:49:12;0.80;;;0.80;;
21260;SDS011;10788;47.930;9.766;2023-08-21T11:51:38;0.70;;;0.70;;
21260;SDS011;10788;47.930;9.766;2023-08-21T11:54:04;1.00;;;0.90;;
21260;SDS011;10788;47.930;9.766;2023-08-21T11:56:31;0.60;;;0.60;;
21260;SDS011;10788;47.930;9.766;2023-08-21T11:58:56;0.80;;;0.80;;
21260;SDS011;10788;47.930;9.766;2023-08-21T12:01:24;0.70;;;0.70;;
21260;SDS011;10788;47.930;9.766;2023-08-21T12:03:49;0.73;;;0.73;;
21260;SDS011;10788;47.930;9.766;2023-08-21T12:06:19;1.10;;;1.00;;
21260;SDS011;10788;47.930;9.766;2023-08-21T12:08:46;1.10;;;1.00;;
21260;SDS011;10788;47.930;9.766;2023-08-21T12:11:11;0.80;;;0.80;;
21260;SDS011;10788;47.930;9.766;2023-08-21T12:13:37;1.10;;;1.00;;
21260;SDS011;10788;47.930;9.766;2023-08-21T12:16:03;0.80;;;0.80;;
21260;SDS011;10788;47.930;9.766;2023-08-21T12:18:29;0.80;;;0.80;;
21260;SDS011;10788;47.930;9.766;2023-08-21T12:20:54;0.90;;;0.90;;
21260;SDS011;10788;47.930;9.766;2023-08-21T12:23:20;0.73;;;0.73;;
21260;SDS011;10788;47.930;9.766;2023-08-21T12:25:46;1.00;;;0.90;;
21260;SDS011;10788;47.930;9.766;2023-08-21T12:28:11;0.80;;;0.80;;
21260;SDS011;10788;47.930;9.766;2023-08-21T12:30:37;0.87;;;0.87;;
21260;SDS011;10788;47.930;9.766;2023-08-21T12:33:03;1.00;;;0.93;;
21260;SDS011;10788;47.930;9.766;2023-08-21T12:35:28;1.10;;;1.00;;
21260;SDS011;10788;47.930;9.766;2023-08-21T12:37:55;1.10;;;1.00;;
21260;SDS011;10788;47.930;9.766;2023-08-21T12:40:22;1.07;;;0.97;;
21260;SDS011;10788;47.930;9.766;2023-08-21T12:42:48;0.90;;;0.90;;
21260;SDS011;10788;47.930;9.766;2023-08-21T12:45:13;0.80;;;0.80;;
21260;SDS011;10788;47.930;9.766;2023-08-21T12:47:39;0.90;;;0.90;;
21260;SDS011;10788;47.930;9.766;2023-08-21T12:50:05;0.77;;;0.77;;
21260;SDS011;10788;47.930;9.766;2023-08-21T12:52:31;0.73;;;0.73;;
21260;SDS011;10788;47.930;9.766;2023-08-21T12:54:57;0.80;;;0.80;;
21260;SDS011;10788;47.930;9.766;2023-08-21T12:57:24;0.90;;;0.90;;
21260;SDS011;10788;47.930;9.766;2023-08-21T12:59:51;0.70;;;0.70;;
21260;SDS011;10788;47.930;9.766;2023-08-21T13:02:17;0.90;;;0.90;;
21260;SDS011;10788;47.930;9.766;2023-08-21T13:04:43;0.77;;;0.77;;
21260;SDS011;10788;47.930;9.766;2023-08-21T13:07:09;1.00;;;0.90;;
21260;SDS011;10788;47.930;9.766;2023-08-21T13:09:35;0.90;;;0.90;;
21260;SDS011;10788;47.930;9.766;2023-08-21T13:12:00;0.70;;;0.70;;
21260;SDS011;10788;47.930;9.766;2023-08-21T13:14:26;0.90;;;0.90;;
21260;SDS011;10788;47.930;9.766;2023-08-21T13:16:52;0.70;;;0.70;;
21260;SDS011;10788;47.930;9.766;2023-08-21T13:19:18;0.80;;;0.80;;
21260;SDS011;10788;47.930;9.766;2023-08-21T13:21:44;0.83;;;0.83;;
21260;SDS011;10788;47.930;9.766;2023-08-21T13:24:09;0.80;;;0.80;;
21260;SDS011;10788;47.930;9.766;2023-08-21T13:26:35;0.90;;;0.90;;
21260;SDS011;10788;47.930;9.766;2023-08-21T13:29:01;0.67;;;0.67;;
21260;SDS011;10788;47.930;9.766;2023-08-21T13:31:27;0.80;;;0.80;;
21260;SDS011;10788;47.930;9.766;2023-08-21T13:33:53;0.73;;;0.73;;
21260;SDS011;10788;47.930;9.766;2023-08-21T13:36:19;0.77;;;0.77;;
21260;SDS011;10788;47.930;9.766;2023-08-21T13:38:46;0.80;;;0.80;;
21260;SDS011;10788;47.930;9.766;2023-08-21T13:41:12;0.60;;;0.60;;
21260;SDS011;10788;47.930;9.766;2023-08-21T13:43:38;1.10;;;1.00;;
21260;SDS011;10788;47.930;9.766;2023-08-21T13:46:04;0.90;;;0.90;;
21260;SDS011;10788;47.930;9.766;2023-08-21T13:48:30;0.83;;;0.83;;
21260;SDS011;10788;47.930;9.766;2023-08-21T13:50:56;1.10;;;1.00;;
21260;SDS011;10788;47.930;9.766;2023-08-21T13:53:22;0.93;;;0.93;;
21260;SDS011;10788;47.930;9.766;2023-08-21T13:55:48;0.60;;;0.60;;
21260;SDS011;10788;47.930;9.766;2023-08-21T13:58:14;0.87;;;0.87;;
21260;SDS011;10788;47.930;9.766;2023-08-21T14:00:40;0.90;;;0.90;;
21260;SDS011;10788;47.930;9.766;2023-08-21T14:03:05;1.03;;;0.97;;
21260;SDS011;10788;47.930;9.766;2023-08-21T14:05:31;0.80;;;0.80;;
21260;SDS011;10788;47.930;9.766;2023-08-21T14:07:58;0.70;;;0.70;;
21260;SDS011;10788;47.930;9.766;2023-08-21T14:10:24;1.17;;;1.07;;
21260;SDS011;10788;47.930;9.766;2023-08-21T14:12:50;0.80;;;0.80;;
21260;SDS011;10788;47.930;9.766;2023-08-21T14:15:16;1.23;;;1.13;;
21260;SDS011;10788;47.930;9.766;2023-08-21T14:17:43;0.90;;;0.90;;
21260;SDS011;10788;47.930;9.766;2023-08-21T14:20:09;0.97;;;0.90;;
21260;SDS011;10788;47.930;9.766;2023-08-21T14:22:36;0.77;;;0.77;;
21260;SDS011;10788;47.930;9.766;2023-08-21T14:25:02;0.80;;;0.80;;
21260;SDS011;10788;47.930;9.766;2023-08-21T14:27:30;0.73;;;0.73;;
21260;SDS011;10788;47.930;9.766;2023-08-21T14:29:56;0.83;;;0.83;;
21260;SDS011;10788;47.930;9.766;2023-08-21T14:32:22;0.90;;;0.90;;
21260;SDS011;10788;47.930;9.766;2023-08-21T14:34:48;1.10;;;1.00;;
21260;SDS011;10788;47.930;9.766;2023-08-21T14:37:13;1.10;;;1.00;;
21260;SDS011;10788;47.930;9.766;2023-08-21T14:39:41;0.90;;;0.90;;
21260;SDS011;10788;47.930;9.766;2023-08-21T14:42:07;1.10;;;1.00;;
21260;SDS011;10788;47.930;9.766;2023-08-21T14:44:33;0.80;;;0.80;;
21260;SDS011;10788;47.930;9.766;2023-08-21T14:46:59;0.90;;;0.90;;
21260;SDS011;10788;47.930;9.766;2023-08-21T14:49:25;0.90;;;0.90;;
21260;SDS011;10788;47.930;9.766;2023-08-21T14:51:50;0.90;;;0.90;;
21260;SDS011;10788;47.930;9.766;2023-08-21T14:54:17;1.10;;;1.00;;
21260;SDS011;10788;47.930;9.766;2023-08-21T14:56:42;0.90;;;0.90;;
21260;SDS011;10788;47.930;9.766;2023-08-21T14:59:08;1.20;;;1.10;;